Time;durP1;ratioP1;P1;durP2;ratioP2;P2;SDS_P1;SDS_P2;PMS_P1;PMS_P2;Temp;Humidity;BMP_temperature;BMP_pressure;BME280_temperature;BME280_humidity;BME280_pressure;Samples;Min_cycle;Max_cycle;Signal;HPM_P1;HPM_P2
2021/10/18 00:00:29;;;;;;;10.40;4.30;;;;;;;12.51;93.68;101416.31;5046508;28;20033;-65
2021/10/18 00:02:54;;;;;;;8.95;4.00;;;;;;;12.57;93.39;101422.25;5048514;28;20391;-65
2021/10/18 00:05:23;;;;;;;9.32;4.50;;;;;;;12.51;93.10;101423.63;5044302;28;20040;-65
2021/10/18 00:07:49;;;;;;;13.60;4.30;;;;;;;12.50;93.47;101412.03;5043754;28;20064;-66
2021/10/18 00:10:15;;;;;;;7.85;4.10;;;;;;;12.53;93.75;101407.88;5048835;28;20071;-65
2021/10/18 00:12:42;;;;;;;8.43;4.45;;;;;;;12.55;93.84;101413.69;5049240;28;20045;-65
2021/10/18 00:15:10;;;;;;;9.55;4.47;;;;;;;12.54;93.62;101410.22;5046445;28;20112;-65
2021/10/18 00:17:36;;;;;;;9.73;4.53;;;;;;;12.55;93.15;101425.31;5048660;28;20017;-65
2021/10/18 00:20:04;;;;;;;17.48;4.20;;;;;;;12.56;93.18;101418.00;5047212;28;20036;-66
2021/10/18 00:22:30;;;;;;;7.47;3.78;;;;;;;12.56;92.98;101424.16;5048010;28;20036;-65
2021/10/18 00:24:56;;;;;;;8.70;4.00;;;;;;;12.59;92.52;101411.88;5046871;28;20398;-65
2021/10/18 00:27:22;;;;;;;8.30;3.92;;;;;;;12.58;92.40;101421.13;5047910;28;20025;-65
2021/10/18 00:29:47;;;;;;;8.05;4.10;;;;;;;12.58;92.42;101411.09;5042385;28;20070;-65
2021/10/18 00:32:12;;;;;;;9.10;4.22;;;;;;;12.56;92.47;101420.69;5049103;28;20044;-66
2021/10/18 00:34:38;;;;;;;9.45;4.07;;;;;;;12.51;92.34;101420.94;5046162;28;20032;-65
2021/10/18 00:37:03;;;;;;;11.93;4.30;;;;;;;12.52;92.57;101422.53;5043538;28;20025;-66
2021/10/18 00:39:29;;;;;;;9.13;4.00;;;;;;;12.44;92.43;101431.56;5030679;28;20072;-66
2021/10/18 00:41:54;;;;;;;11.23;4.10;;;;;;;12.50;92.56;101425.53;5045936;28;20029;-65
2021/10/18 00:44:20;;;;;;;8.82;4.10;;;;;;;12.50;92.36;101436.34;5044512;28;20032;-66
2021/10/18 00:46:46;;;;;;;9.43;4.28;;;;;;;12.55;92.20;101436.09;5049210;28;20409;-66
2021/10/18 00:49:11;;;;;;;10.82;4.90;;;;;;;12.54;92.16;101437.22;5045884;28;20094;-66
2021/10/18 00:51:38;;;;;;;14.52;4.70;;;;;;;12.57;91.78;101441.94;5048306;28;20057;-65
2021/10/18 00:54:03;;;;;;;10.07;4.30;;;;;;;12.49;92.14;101437.50;5049016;28;20045;-66
2021/10/18 00:56:30;;;;;;;9.07;4.13;;;;;;;12.50;92.33;101444.47;5048207;28;20021;-65
2021/10/18 00:58:58;;;;;;;8.93;4.40;;;;;;;12.49;92.19;101434.78;5040889;28;20053;-65
2021/10/18 01:01:24;;;;;;;8.52;3.97;;;;;;;12.53;92.40;101435.69;5046520;28;20055;-66
2021/10/18 01:03:50;;;;;;;11.43;4.97;;;;;;;12.55;92.24;101441.50;5048627;28;20032;-66
2021/10/18 01:06:15;;;;;;;10.90;4.95;;;;;;;12.58;92.02;101432.69;5048730;28;20139;-66
2021/10/18 01:08:41;;;;;;;10.82;4.40;;;;;;;12.58;92.05;101437.34;5048254;28;20049;-66
2021/10/18 01:11:07;;;;;;;8.52;4.32;;;;;;;12.56;91.84;101437.66;5048151;28;20391;-65
2021/10/18 01:13:33;;;;;;;11.40;4.57;;;;;;;12.55;91.73;101438.03;5041499;28;20032;-66
2021/10/18 01:16:01;;;;;;;9.82;4.85;;;;;;;12.56;91.36;101434.97;5050092;28;20040;-66
2021/10/18 01:18:27;;;;;;;7.68;3.90;;;;;;;12.55;91.52;101433.41;5049234;28;20451;-66
2021/10/18 01:20:53;;;;;;;11.82;4.53;;;;;;;12.53;91.51;101424.06;5048406;28;20052;-66
2021/10/18 01:23:18;;;;;;;11.70;4.80;;;;;;;12.57;90.44;101420.34;5051691;28;20041;-66
2021/10/18 01:25:44;;;;;;;10.70;4.63;;;;;;;12.54;90.90;101418.31;5050024;28;20040;-66
2021/10/18 01:28:10;;;;;;;10.65;4.15;;;;;;;12.53;91.02;101430.28;5051973;28;20044;-66
2021/10/18 01:30:35;;;;;;;9.18;4.38;;;;;;;12.52;90.89;101444.91;5054797;22;20049;-67
2021/10/18 01:33:01;;;;;;;10.80;4.57;;;;;;;12.50;91.25;101432.88;5050348;28;20036;-67
2021/10/18 01:35:26;;;;;;;9.50;4.07;;;;;;;12.46;91.67;101440.13;5052629;28;20056;-67
2021/10/18 01:37:52;;;;;;;8.93;4.78;;;;;;;12.48;91.80;101435.94;5051767;28;20369;-66
2021/10/18 01:40:20;;;;;;;12.18;4.50;;;;;;;12.56;91.31;101437.66;5049734;28;20043;-67
2021/10/18 01:42:47;;;;;;;13.00;4.55;;;;;;;12.53;91.60;101424.88;5053243;28;20064;-67
2021/10/18 01:45:14;;;;;;;10.18;4.10;;;;;;;12.49;91.79;101434.00;5049569;28;20032;-67
2021/10/18 01:47:40;;;;;;;9.82;3.97;;;;;;;12.52;92.11;101431.38;5051644;28;20056;-67
2021/10/18 01:50:08;;;;;;;8.57;4.40;;;;;;;12.49;92.16;101434.78;5052709;28;20024;-67
2021/10/18 01:52:34;;;;;;;10.55;4.00;;;;;;;12.52;91.86;101442.19;5050246;28;20036;-67
2021/10/18 01:54:59;;;;;;;8.85;3.83;;;;;;;12.52;91.96;101436.78;5051984;28;20090;-67
2021/10/18 01:57:25;;;;;;;10.82;4.45;;;;;;;12.55;91.62;101433.41;5052513;28;20037;-67
2021/10/18 01:59:50;;;;;;;9.57;4.43;;;;;;;12.57;91.32;101439.25;5047997;28;20047;-67
2021/10/18 02:02:16;;;;;;;12.63;4.43;;;;;;;12.54;91.51;101434.53;5051980;28;20040;-67
2021/10/18 02:04:41;;;;;;;11.75;4.38;;;;;;;12.49;91.38;101421.28;5049829;28;20460;-67
2021/10/18 02:07:07;;;;;;;7.40;4.15;;;;;;;12.50;91.25;101425.53;5052174;28;20029;-67
2021/10/18 02:09:32;;;;;;;6.97;3.90;;;;;;;12.45;91.54;101414.22;5052156;28;20100;-67
2021/10/18 02:11:58;;;;;;;10.38;4.53;;;;;;;12.45;91.53;101417.72;5050244;28;20128;-66
2021/10/18 02:14:23;;;;;;;9.68;4.47;;;;;;;12.49;91.22;101398.88;5050704;28;20028;-66
2021/10/18 02:16:49;;;;;;;14.48;4.93;;;;;;;12.45;91.26;101409.59;5050425;28;20041;-66
2021/10/18 02:19:14;;;;;;;12.63;4.18;;;;;;;12.47;90.33;101404.66;5051601;28;20033;-66
2021/10/18 02:21:40;;;;;;;9.88;4.90;;;;;;;12.44;89.88;101405.34;5049511;28;20044;-66
2021/10/18 02:24:05;;;;;;;12.40;4.72;;;;;;;12.41;89.86;101400.63;5032686;28;20045;-66
2021/10/18 02:26:30;;;;;;;10.82;4.10;;;;;;;12.34;90.34;101403.16;5052133;28;20071;-66
2021/10/18 02:28:56;;;;;;;9.55;4.18;;;;;;;12.35;89.59;101398.56;5047446;28;20025;-66
2021/10/18 02:31:22;;;;;;;13.75;4.80;;;;;;;12.30;89.89;101396.09;5051524;28;20032;-66
2021/10/18 02:33:47;;;;;;;9.43;4.55;;;;;;;12.25;90.49;101397.13;5051226;28;20409;-66
2021/10/18 02:36:13;;;;;;;12.57;4.55;;;;;;;12.25;90.38;101399.06;5049274;28;20024;-67
2021/10/18 02:38:39;;;;;;;9.18;4.60;;;;;;;12.21;90.47;101395.47;5045749;28;20029;-66
2021/10/18 02:41:06;;;;;;;12.20;4.85;;;;;;;12.20;90.56;101393.91;5048577;28;20036;-67
2021/10/18 02:43:32;;;;;;;10.25;4.50;;;;;;;12.12;91.29;101402.94;5049999;28;20029;-66
2021/10/18 02:45:57;;;;;;;10.80;4.05;;;;;;;12.10;91.17;101405.22;5048802;28;20044;-67
2021/10/18 02:48:23;;;;;;;14.43;5.25;;;;;;;12.06;91.62;101401.66;5050827;28;20469;-66
2021/10/18 02:50:50;;;;;;;9.85;4.60;;;;;;;12.04;91.60;101399.28;5051770;28;20105;-66
2021/10/18 02:53:16;;;;;;;11.68;5.03;;;;;;;12.05;91.76;101400.06;5049545;28;20110;-66
2021/10/18 02:55:42;;;;;;;10.07;4.78;;;;;;;12.04;91.82;101403.91;5051058;28;20084;-66
2021/10/18 02:58:07;;;;;;;11.15;5.10;;;;;;;12.06;91.95;101404.34;5048431;28;20147;-66
2021/10/18 03:00:33;;;;;;;9.60;5.07;;;;;;;12.05;91.88;101402.78;5050510;28;20029;-66
2021/10/18 03:02:58;;;;;;;10.00;4.88;;;;;;;12.03;92.04;101405.03;5051622;28;20405;-66
2021/10/18 03:05:24;;;;;;;10.32;4.43;;;;;;;12.02;92.70;101404.22;5051214;28;20032;-66
2021/10/18 03:07:53;;;;;;;9.32;4.05;;;;;;;11.99;92.48;101404.94;5047215;28;20044;-66
2021/10/18 03:10:19;;;;;;;8.90;4.32;;;;;;;12.05;92.15;101402.78;5050855;28;20040;-66
2021/10/18 03:12:45;;;;;;;9.43;4.05;;;;;;;12.02;92.29;101414.28;5051254;28;20044;-67
2021/10/18 03:15:11;;;;;;;9.40;4.50;;;;;;;12.02;92.31;101403.47;5050525;28;20035;-67
2021/10/18 03:17:37;;;;;;;13.30;5.22;;;;;;;12.00;92.18;101414.59;5047180;28;20028;-66
2021/10/18 03:20:04;;;;;;;10.35;4.72;;;;;;;12.03;92.14;101415.81;5050825;28;20036;-67
2021/10/18 03:22:29;;;;;;;11.90;4.93;;;;;;;12.02;91.76;101416.97;5050853;28;20131;-66
2021/10/18 03:24:55;;;;;;;11.50;4.72;;;;;;;11.98;91.86;101418.78;5047871;28;20112;-66
2021/10/18 03:27:21;;;;;;;13.27;4.60;;;;;;;11.97;92.43;101418.00;5051170;28;20120;-67
2021/10/18 03:29:47;;;;;;;7.88;4.13;;;;;;;11.93;92.67;101414.41;5048132;28;20039;-66
2021/10/18 03:32:13;;;;;;;11.65;4.40;;;;;;;11.94;92.99;101417.91;5047140;28;20082;-66
2021/10/18 03:34:39;;;;;;;7.63;4.00;;;;;;;11.94;92.63;101418.69;5048406;28;20044;-67
2021/10/18 03:37:04;;;;;;;13.60;4.40;;;;;;;11.93;92.96;101419.03;5048625;28;20028;-67
2021/10/18 03:39:30;;;;;;;12.88;4.53;;;;;;;11.96;92.64;101421.03;5046349;28;20029;-66
2021/10/18 03:41:56;;;;;;;10.90;4.30;;;;;;;11.94;92.72;101426.78;5049589;28;20041;-67
2021/10/18 03:44:21;;;;;;;8.18;3.90;;;;;;;11.95;92.58;101427.56;5049802;28;20044;-68
2021/10/18 03:46:47;;;;;;;9.88;4.05;;;;;;;11.90;92.98;101425.13;5046868;28;20051;-67
2021/10/18 03:49:13;;;;;;;9.35;4.30;;;;;;;11.93;92.48;101429.81;5049631;28;20032;-67
2021/10/18 03:51:40;;;;;;;8.23;3.95;;;;;;;11.89;92.53;101420.84;5050728;28;20040;-67
2021/10/18 03:54:05;;;;;;;10.10;4.20;;;;;;;11.85;92.74;101428.84;5050993;28;20162;-67
2021/10/18 03:56:31;;;;;;;10.05;4.72;;;;;;;11.84;92.72;101435.38;5047168;28;20066;-66
2021/10/18 03:58:56;;;;;;;11.63;4.25;;;;;;;11.83;92.63;101439.19;5049737;28;20091;-66
2021/10/18 04:01:22;;;;;;;11.57;4.20;;;;;;;11.73;93.10;101431.56;5039321;28;20029;-66
2021/10/18 04:03:48;;;;;;;9.95;4.10;;;;;;;11.77;93.07;101440.56;5048402;28;20035;-66
2021/10/18 04:06:13;;;;;;;16.77;4.63;;;;;;;11.81;92.63;101436.06;5049554;28;20040;-66
2021/10/18 04:08:39;;;;;;;10.38;4.10;;;;;;;11.83;92.30;101441.13;5048583;28;20265;-66
2021/10/18 04:11:05;;;;;;;9.60;4.20;;;;;;;11.85;92.37;101439.63;5047614;28;20503;-66
2021/10/18 04:13:30;;;;;;;9.45;4.00;;;;;;;11.83;92.57;101433.78;5048913;28;20041;-67
2021/10/18 04:15:56;;;;;;;7.43;3.78;;;;;;;11.89;92.50;101434.31;5048917;28;20064;-66
2021/10/18 04:18:22;;;;;;;8.15;3.35;;;;;;;11.86;93.40;101438.53;5046379;28;20036;-67
2021/10/18 04:20:48;;;;;;;10.80;4.10;;;;;;;11.91;93.22;101442.88;5049596;28;20097;-66
2021/10/18 04:23:14;;;;;;;9.10;4.13;;;;;;;11.94;92.83;101436.81;5049891;28;20029;-67
2021/10/18 04:25:39;;;;;;;8.95;4.30;;;;;;;11.94;92.92;101447.59;5049418;28;20041;-67
2021/10/18 04:28:05;;;;;;;13.38;4.18;;;;;;;11.96;92.29;101443.44;5046196;28;20056;-66
2021/10/18 04:30:30;;;;;;;10.65;4.03;;;;;;;11.94;92.83;101439.50;5048704;28;20400;-66
2021/10/18 04:32:56;;;;;;;7.05;3.70;;;;;;;11.90;92.95;101444.81;5043864;28;20397;-66
2021/10/18 04:35:22;;;;;;;9.93;4.43;;;;;;;11.92;93.09;101441.75;5045456;28;20029;-66
2021/10/18 04:37:48;;;;;;;8.20;3.70;;;;;;;11.94;92.38;101450.28;5047978;28;20055;-67
2021/10/18 04:40:14;;;;;;;8.93;3.88;;;;;;;11.90;92.56;101442.09;5050126;28;20613;-67
2021/10/18 04:42:39;;;;;;;7.63;3.40;;;;;;;11.89;92.73;101437.81;5047036;28;20044;-66
2021/10/18 04:45:06;;;;;;;9.85;3.95;;;;;;;11.94;92.10;101442.19;5048838;28;20039;-67
2021/10/18 04:47:32;;;;;;;7.93;3.80;;;;;;;11.88;91.91;101433.56;5051204;28;20679;-67
2021/10/18 04:49:57;;;;;;;8.23;4.13;;;;;;;11.92;91.99;101426.34;5050383;28;20045;-68
2021/10/18 04:52:23;;;;;;;12.05;4.22;;;;;;;11.92;92.15;101433.66;5053739;28;20111;-68
2021/10/18 04:54:48;;;;;;;8.55;4.00;;;;;;;11.94;91.74;101436.81;5053025;28;20114;-68
2021/10/18 04:57:14;;;;;;;9.18;4.65;;;;;;;11.97;91.27;101436.09;5053147;28;20032;-68
2021/10/18 04:59:39;;;;;;;9.10;4.28;;;;;;;11.98;91.31;101434.97;5049290;28;20562;-67
2021/10/18 05:02:05;;;;;;;7.63;3.70;;;;;;;12.04;90.97;101447.88;5050222;28;20096;-67
2021/10/18 05:04:30;;;;;;;9.20;4.10;;;;;;;12.04;90.87;101436.31;5051635;28;20025;-67
2021/10/18 05:06:56;;;;;;;6.80;3.95;;;;;;;11.97;90.78;101436.09;5049054;28;20121;-68
2021/10/18 05:09:21;;;;;;;10.13;4.43;;;;;;;12.01;90.26;101443.19;5050722;28;20111;-66
2021/10/18 05:11:47;;;;;;;11.00;4.70;;;;;;;12.07;89.67;101444.50;5053011;28;20044;-68
2021/10/18 05:14:12;;;;;;;7.43;3.72;;;;;;;12.02;90.24;101446.66;5052346;28;20017;-67
2021/10/18 05:16:39;;;;;;;10.50;3.95;;;;;;;12.06;90.17;101448.31;5047280;28;20033;-66
2021/10/18 05:19:05;;;;;;;7.72;3.70;;;;;;;12.07;90.25;101452.59;5051057;28;20057;-68
2021/10/18 05:21:31;;;;;;;10.32;4.00;;;;;;;12.09;89.76;101458.44;5049616;28;20122;-68
2021/10/18 05:23:56;;;;;;;7.30;3.53;;;;;;;12.11;89.90;101461.59;5050164;28;20154;-67
2021/10/18 05:26:21;;;;;;;12.20;4.32;;;;;;;12.08;89.93;101448.75;5053634;28;20135;-67
2021/10/18 05:28:47;;;;;;;9.57;4.13;;;;;;;12.10;90.01;101457.28;5045718;28;20033;-66
2021/10/18 05:31:13;;;;;;;8.02;4.07;;;;;;;12.14;89.64;101460.09;5051598;28;20147;-68
2021/10/18 05:33:39;;;;;;;10.88;4.10;;;;;;;12.11;89.66;101466.19;5050841;28;20511;-67
2021/10/18 05:36:04;;;;;;;11.18;4.03;;;;;;;12.12;89.85;101465.84;5052429;28;20485;-67
2021/10/18 05:38:30;;;;;;;7.00;3.42;;;;;;;12.12;89.82;101476.63;5051256;28;20029;-67
2021/10/18 05:40:55;;;;;;;8.73;3.92;;;;;;;12.11;90.13;101468.88;5047867;28;20036;-68
2021/10/18 05:43:21;;;;;;;6.72;4.00;;;;;;;12.13;89.93;101472.81;5052249;28;20064;-67
2021/10/18 05:45:46;;;;;;;7.75;3.60;;;;;;;12.14;90.14;101476.28;5038196;28;20524;-67
2021/10/18 05:48:12;;;;;;;9.45;3.85;;;;;;;12.16;90.29;101466.72;5039488;28;20029;-68
2021/10/18 05:50:44;;;;;;;8.90;3.88;;;;;;;12.15;90.09;101475.16;5043456;28;20033;-67
2021/10/18 05:53:10;;;;;;;9.38;3.83;;;;;;;12.10;90.49;101470.03;5033508;28;20033;-67
2021/10/18 05:55:35;;;;;;;6.78;3.80;;;;;;;12.10;90.43;101470.78;5039609;28;20020;-67
2021/10/18 05:58:03;;;;;;;7.90;3.60;;;;;;;12.10;90.63;101475.44;5046632;28;20120;-67
2021/10/18 06:00:34;;;;;;;6.55;3.70;;;;;;;12.14;90.00;101477.06;5046026;28;20037;-67
2021/10/18 06:02:59;;;;;;;9.43;4.15;;;;;;;12.12;89.78;101489.34;5051254;28;20405;-67
2021/10/18 06:05:25;;;;;;;8.18;3.70;;;;;;;12.14;89.71;101484.38;5048573;28;20024;-68
2021/10/18 06:07:50;;;;;;;10.73;4.10;;;;;;;12.14;89.51;101482.47;5050459;28;20029;-68
2021/10/18 06:10:16;;;;;;;9.68;3.55;;;;;;;12.15;89.54;101486.75;5048809;28;20486;-67
2021/10/18 06:12:43;;;;;;;8.80;4.00;;;;;;;12.14;89.61;101487.09;5050923;28;20041;-67
2021/10/18 06:15:10;;;;;;;8.13;3.92;;;;;;;12.09;89.71;101479.25;5050343;28;20041;-67
2021/10/18 06:17:36;;;;;;;7.05;3.58;;;;;;;12.12;89.52;101484.75;5049334;28;20064;-67
2021/10/18 06:20:03;;;;;;;9.77;4.53;;;;;;;12.12;89.75;101487.44;5049898;28;20060;-67
2021/10/18 06:22:29;;;;;;;13.00;4.70;;;;;;;12.17;89.48;101483.72;5050973;28;20040;-67
2021/10/18 06:24:54;;;;;;;6.47;3.10;;;;;;;12.14;89.65;101493.28;5050631;28;20036;-67
2021/10/18 06:27:21;;;;;;;8.38;3.50;;;;;;;12.17;89.32;101500.72;5048564;28;20464;-67
2021/10/18 06:29:46;;;;;;;10.68;3.85;;;;;;;12.21;88.91;101508.91;5048471;28;20028;-67
2021/10/18 06:32:12;;;;;;;7.13;3.83;;;;;;;12.17;89.16;101502.63;5044575;28;20025;-67
2021/10/18 06:34:37;;;;;;;9.43;3.65;;;;;;;12.19;89.19;101506.56;5047978;28;20029;-67
2021/10/18 06:37:03;;;;;;;5.70;3.28;;;;;;;12.24;88.76;101514.41;5049937;28;20031;-66
2021/10/18 06:39:29;;;;;;;8.82;3.53;;;;;;;12.24;89.26;101511.69;5045499;28;20025;-66
2021/10/18 06:41:54;;;;;;;5.25;3.38;;;;;;;12.25;89.93;101520.59;5042867;28;20489;-69
2021/10/18 06:44:20;;;;;;;9.20;4.03;;;;;;;12.26;89.71;101517.53;5047690;28;20037;-67
2021/10/18 06:46:45;;;;;;;7.47;3.83;;;;;;;12.34;89.11;101521.22;5050837;28;20083;-66
2021/10/18 06:49:11;;;;;;;9.25;4.40;;;;;;;12.32;89.41;101516.16;5048245;28;20036;-67
2021/10/18 06:51:44;;;;;;;10.40;3.97;;;;;;;12.36;89.53;101521.66;5044501;28;20035;-67
2021/10/18 06:54:11;;;;;;;6.85;3.83;;;;;;;12.44;89.11;101526.91;5044228;28;20029;-67
2021/10/18 06:56:41;;;;;;;8.90;4.10;;;;;;;12.41;89.21;101530.28;5046793;28;20496;-67
2021/10/18 06:59:06;;;;;;;7.40;3.63;;;;;;;12.42;89.06;101531.09;5007474;28;20032;-66
2021/10/18 07:01:32;;;;;;;6.22;3.40;;;;;;;12.45;88.80;101533.88;5047738;28;20062;-66
2021/10/18 07:03:57;;;;;;;8.52;3.97;;;;;;;12.49;88.81;101540.16;5050760;28;20048;-67
2021/10/18 07:06:22;;;;;;;9.27;3.95;;;;;;;12.50;89.20;101541.72;5050883;28;20400;-67
2021/10/18 07:08:48;;;;;;;8.73;3.55;;;;;;;12.55;89.02;101540.69;5047097;28;20040;-67
2021/10/18 07:11:13;;;;;;;8.90;3.58;;;;;;;12.59;88.91;101542.38;5048165;28;20091;-67
2021/10/18 07:13:39;;;;;;;9.65;3.80;;;;;;;12.63;88.16;101545.94;5047905;28;20505;-67
2021/10/18 07:16:04;;;;;;;7.32;3.28;;;;;;;12.66;88.07;101547.16;5046905;28;20678;-66
2021/10/18 07:18:30;;;;;;;7.53;3.45;;;;;;;12.70;87.96;101539.94;5048576;28;20036;-67
2021/10/18 07:20:55;;;;;;;5.85;3.53;;;;;;;12.77;87.65;101539.34;5047510;28;20049;-67
2021/10/18 07:23:21;;;;;;;6.10;3.47;;;;;;;12.81;87.81;101543.72;5049021;28;20106;-67
2021/10/18 07:25:46;;;;;;;9.10;3.53;;;;;;;12.86;87.26;101540.75;5050413;28;20032;-67
2021/10/18 07:28:12;;;;;;;11.27;3.65;;;;;;;12.83;87.28;101541.44;5046683;28;20472;-67
2021/10/18 07:30:39;;;;;;;6.38;3.45;;;;;;;12.89;86.84;101550.09;5061119;22;20635;-66
2021/10/18 07:33:05;;;;;;;7.97;4.47;;;;;;;12.94;86.21;101549.81;5042486;28;20029;-65
2021/10/18 07:35:34;;;;;;;10.52;4.25;;;;;;;13.00;85.67;101556.53;5050010;28;20441;-66
2021/10/18 07:38:00;;;;;;;6.35;3.30;;;;;;;12.95;85.78;101557.56;5046036;28;20032;-66
2021/10/18 07:40:29;;;;;;;7.40;3.83;;;;;;;12.98;85.73;101550.69;5040468;28;20025;-66
2021/10/18 07:42:54;;;;;;;8.55;4.35;;;;;;;12.99;85.79;101557.69;5040199;28;20500;-66
2021/10/18 07:45:20;;;;;;;8.88;3.67;;;;;;;13.02;85.69;101557.78;5039835;28;20111;-66
2021/10/18 07:47:45;;;;;;;7.57;3.70;;;;;;;13.03;85.83;101572.06;5043177;28;20021;-66
2021/10/18 07:50:12;;;;;;;8.07;3.45;;;;;;;13.00;86.05;101568.16;5048326;28;20086;-66
2021/10/18 07:52:39;;;;;;;9.02;3.72;;;;;;;13.07;86.28;101570.25;5049019;28;20047;-66
2021/10/18 07:55:12;;;;;;;12.02;4.45;;;;;;;13.16;86.55;101573.59;5049303;28;20035;-67
2021/10/18 07:57:38;;;;;;;8.13;3.78;;;;;;;13.22;85.99;101569.50;5045912;28;20028;-66
2021/10/18 08:00:04;;;;;;;8.57;3.67;;;;;;;13.25;86.00;101568.78;5048339;28;20389;-66
2021/10/18 08:02:30;;;;;;;12.75;4.75;;;;;;;13.32;85.92;101577.84;5042051;28;20120;-66
2021/10/18 08:04:55;;;;;;;6.38;3.40;;;;;;;13.36;84.94;101577.94;5044233;28;20112;-67
2021/10/18 08:07:26;;;;;;;5.72;3.50;;;;;;;13.38;85.03;101589.19;5044526;28;20091;-65
2021/10/18 08:09:52;;;;;;;5.32;3.53;;;;;;;13.41;84.84;101577.69;5046512;28;20465;-66
2021/10/18 08:12:17;;;;;;;7.78;3.85;;;;;;;13.46;85.17;101578.19;5046653;28;20128;-66
2021/10/18 08:14:43;;;;;;;7.03;3.85;;;;;;;13.51;84.29;101577.91;5039248;28;20067;-66
2021/10/18 08:17:08;;;;;;;10.98;4.00;;;;;;;13.55;84.01;101589.63;5046869;28;20543;-67
2021/10/18 08:19:34;;;;;;;7.70;3.90;;;;;;;13.58;84.03;101593.53;5042986;28;20100;-66
2021/10/18 08:21:59;;;;;;;7.85;4.07;;;;;;;13.71;83.23;101586.88;5047555;28;20420;-66
2021/10/18 08:24:24;;;;;;;6.45;3.72;;;;;;;13.69;83.07;101589.16;5048509;28;20555;-65
2021/10/18 08:26:50;;;;;;;9.30;3.92;;;;;;;13.80;82.69;101594.81;5049437;28;20037;-66
2021/10/18 08:29:15;;;;;;;6.53;3.50;;;;;;;13.87;82.54;101597.69;5046409;28;20620;-66
2021/10/18 08:31:41;;;;;;;7.50;3.97;;;;;;;13.91;82.88;101593.91;5049180;28;20037;-67
2021/10/18 08:34:07;;;;;;;7.78;3.35;;;;;;;13.95;83.40;101600.19;5049666;28;20490;-65
2021/10/18 08:36:36;;;;;;;7.97;3.13;;;;;;;13.98;83.79;101595.97;5046705;28;20101;-66
2021/10/18 08:42:01;;;;;;;6.30;3.78;;;;;;;14.05;82.06;101602.34;5014379;28;20123;-66
2021/10/18 08:44:27;;;;;;;7.72;3.30;;;;;;;13.99;82.08;101603.78;5049307;28;20489;-67
2021/10/18 08:46:54;;;;;;;7.25;2.88;;;;;;;14.12;81.85;101590.88;5048481;28;20040;-65
2021/10/18 08:49:21;;;;;;;5.72;3.25;;;;;;;14.07;81.60;101588.47;5048642;28;20029;-65
2021/10/18 08:51:47;;;;;;;6.40;3.47;;;;;;;14.02;80.99;101599.56;5040627;28;20033;-65
2021/10/18 08:54:13;;;;;;;10.77;3.40;;;;;;;13.90;80.55;101600.47;5042745;28;20427;-65
2021/10/18 08:56:39;;;;;;;6.28;3.17;;;;;;;13.93;81.53;101599.78;5049487;28;20041;-65
2021/10/18 08:59:05;;;;;;;6.00;3.17;;;;;;;14.02;81.83;101592.22;5049217;28;20737;-65
2021/10/18 09:01:41;;;;;;;7.47;3.53;;;;;;;14.08;80.54;101606.25;5042312;28;20036;-65
2021/10/18 09:04:27;;;;;;;7.38;3.17;;;;;;;14.07;80.84;101605.47;5048779;28;20082;-65
2021/10/18 09:06:56;;;;;;;6.45;3.85;;;;;;;14.18;80.72;101601.09;5049019;28;20745;-65
2021/10/18 09:09:26;;;;;;;6.55;3.58;;;;;;;14.23;80.99;101611.63;5044927;28;20036;-65
2021/10/18 09:11:55;;;;;;;5.55;3.30;;;;;;;14.30;81.13;101605.63;5037429;28;20095;-66
2021/10/18 09:14:20;;;;;;;8.13;3.75;;;;;;;14.26;81.27;101613.66;5048379;28;20013;-65
2021/10/18 09:16:46;;;;;;;8.10;3.45;;;;;;;14.30;82.03;101611.78;5048462;28;20044;-66
2021/10/18 09:19:15;;;;;;;5.53;3.05;;;;;;;14.38;81.66;101610.03;5045840;28;20404;-65
2021/10/18 09:21:48;;;;;;;9.88;3.42;;;;;;;14.35;81.55;101611.53;5040070;28;20040;-65
2021/10/18 09:24:34;;;;;;;5.35;3.65;;;;;;;14.48;81.33;101619.53;5048033;28;20443;-65
2021/10/18 09:27:05;;;;;;;6.35;3.00;;;;;;;14.50;81.44;101622.66;5042489;28;20572;-65
2021/10/18 09:29:44;;;;;;;5.85;3.42;;;;;;;14.53;80.62;101621.94;5048028;28;20039;-65
2021/10/18 09:32:11;;;;;;;10.55;3.15;;;;;;;14.53;80.65;101627.38;5047972;28;20659;-65
2021/10/18 09:34:38;;;;;;;7.57;2.80;;;;;;;14.56;80.44;101621.22;5045562;28;20024;-65
2021/10/18 09:37:14;;;;;;;6.70;3.00;;;;;;;14.57;81.21;101626.31;5051640;28;20469;-66
2021/10/18 09:39:43;;;;;;;8.40;3.45;;;;;;;14.54;81.10;101629.72;5051866;28;20041;-66
2021/10/18 09:42:17;;;;;;;5.65;3.17;;;;;;;14.58;79.91;101622.44;5047350;28;20099;-66
2021/10/18 10:51:57;;;;;;;5.95;3.00;;;;;;;15.58;76.63;101623.84;5044049;28;20116;-66
2021/10/18 10:54:41;;;;;;;8.07;2.63;;;;;;;15.63;76.34;101620.84;5039831;28;20037;-65
2021/10/18 10:57:11;;;;;;;6.43;2.78;;;;;;;15.65;75.54;101615.84;5044923;28;20086;-65
2021/10/18 10:59:48;;;;;;;4.22;2.63;;;;;;;15.69;74.90;101613.97;5050609;28;20392;-66
2021/10/18 11:02:30;;;;;;;6.25;2.63;;;;;;;15.70;75.10;101612.03;5046004;28;20396;-66
2021/10/18 11:04:55;;;;;;;4.13;2.30;;;;;;;15.72;74.94;101618.63;5040120;28;20150;-66
2021/10/18 11:07:41;;;;;;;4.22;2.35;;;;;;;15.67;73.82;101607.31;5049578;28;20112;-66
2021/10/18 11:10:07;;;;;;;4.88;2.70;;;;;;;15.71;73.77;101608.16;5051299;28;20085;-66
2021/10/18 11:12:38;;;;;;;8.73;3.13;;;;;;;15.72;72.66;101596.91;5046683;28;20107;-66
2021/10/18 11:15:10;;;;;;;5.45;1.95;;;;;;;15.71;73.48;101602.72;5051125;28;20037;-66
2021/10/18 11:17:39;;;;;;;3.35;2.08;;;;;;;15.74;73.93;101605.47;5047770;28;20044;-65
2021/10/18 11:20:17;;;;;;;3.72;2.22;;;;;;;15.71;74.33;101600.78;5050641;28;20025;-65
2021/10/18 11:22:47;;;;;;;5.10;2.90;;;;;;;15.79;74.62;101607.91;5044478;28;20592;-65
2021/10/18 11:25:16;;;;;;;4.28;2.35;;;;;;;15.82;74.46;101609.88;5050127;28;20132;-66
2021/10/18 11:27:48;;;;;;;7.70;3.03;;;;;;;15.82;75.38;101615.31;5036209;28;20033;-66
2021/10/18 11:30:16;;;;;;;7.30;2.20;;;;;;;15.91;75.92;101604.94;5036641;28;20170;-66
2021/10/18 11:32:53;;;;;;;5.20;2.70;;;;;;;15.96;75.68;101612.81;5035980;28;20029;-66
2021/10/18 11:35:19;;;;;;;5.53;2.67;;;;;;;15.99;75.80;101600.38;5035474;28;20028;-66
2021/10/18 11:37:48;;;;;;;4.30;2.65;;;;;;;16.07;74.37;101604.78;5036730;28;20496;-66
2021/10/18 11:40:15;;;;;;;6.82;3.00;;;;;;;16.04;73.91;101613.69;5035347;28;20037;-66
2021/10/18 11:43:02;;;;;;;6.50;3.10;;;;;;;16.06;72.93;101600.50;5035298;28;20040;-66
2021/10/18 11:45:32;;;;;;;4.72;2.67;;;;;;;16.06;73.31;101600.50;5035861;28;20044;-66
2021/10/18 11:48:06;;;;;;;3.55;2.42;;;;;;;16.12;73.30;101610.66;5036450;28;20021;-65
2021/10/18 11:50:39;;;;;;;7.80;3.10;;;;;;;16.09;73.10;101610.63;5033607;28;20370;-66
2021/10/18 11:53:16;;;;;;;4.45;2.95;;;;;;;16.10;73.75;101601.34;5022957;28;20055;-65
2021/10/18 11:55:46;;;;;;;5.82;2.85;;;;;;;16.10;73.49;101604.81;5017344;28;20106;-65
2021/10/18 11:58:16;;;;;;;6.32;2.88;;;;;;;16.10;73.04;101596.66;5028953;28;20063;-66
2021/10/18 12:01:02;;;;;;;4.10;2.55;;;;;;;16.11;73.05;101603.69;5014756;28;20033;-66
2021/10/18 12:03:29;;;;;;;6.95;2.80;;;;;;;16.14;73.35;101600.22;4959983;28;20141;-66
2021/10/18 12:05:57;;;;;;;7.03;2.80;;;;;;;16.12;74.13;101597.06;4954944;28;20075;-65
2021/10/18 12:08:27;;;;;;;5.30;2.75;;;;;;;16.15;74.06;101587.41;4949825;28;20046;-66
2021/10/18 12:10:53;;;;;;;3.40;2.40;;;;;;;16.20;73.18;101585.16;4953438;28;20038;-65
2021/10/18 12:13:26;;;;;;;6.95;2.90;;;;;;;16.21;72.75;101581.28;4937902;28;20042;-66
2021/10/18 12:16:25;;;;;;;4.38;2.40;;;;;;;16.13;73.88;101576.91;4959125;28;20038;-65
2021/10/18 12:18:56;;;;;;;6.47;2.90;;;;;;;16.19;75.00;101575.44;4952571;28;20117;-65
2021/10/18 12:21:36;;;;;;;5.13;2.67;;;;;;;16.30;74.92;101572.84;4954093;28;20042;-65
2021/10/18 12:24:02;;;;;;;4.93;2.20;;;;;;;16.31;74.59;101579.06;4943189;28;20042;-66
2021/10/18 12:26:39;;;;;;;5.88;2.42;;;;;;;16.37;74.98;101583.03;4954177;28;20395;-66
2021/10/18 12:29:16;;;;;;;3.63;2.30;;;;;;;16.32;74.86;101577.94;4958814;28;20126;-66
2021/10/18 12:31:42;;;;;;;5.10;2.67;;;;;;;16.40;74.99;101580.34;4966152;28;20126;-66